sensor_id;sensor_type;location;lat;lon;timestamp;P1;durP1;ratioP1;P2;durP2;ratioP2
19569;SDS011;9931;51.458;7.256;2024-01-30T00:02:20;49.20;;;22.63;;
19569;SDS011;9931;51.458;7.256;2024-01-30T00:04:46;51.17;;;23.05;;
19569;SDS011;9931;51.458;7.256;2024-01-30T00:07:11;62.75;;;23.13;;
19569;SDS011;9931;51.458;7.256;2024-01-30T00:09:37;35.57;;;22.00;;
19569;SDS011;9931;51.458;7.256;2024-01-30T00:12:04;37.08;;;22.27;;
19569;SDS011;9931;51.458;7.256;2024-01-30T00:14:29;44.95;;;22.33;;
19569;SDS011;9931;51.458;7.256;2024-01-30T00:16:54;37.80;;;21.30;;
19569;SDS011;9931;51.458;7.256;2024-01-30T00:19:19;64.27;;;22.80;;
19569;SDS011;9931;51.458;7.256;2024-01-30T00:21:44;22.73;;;19.70;;
19569;SDS011;9931;51.458;7.256;2024-01-30T00:24:09;21.30;;;19.10;;
19569;SDS011;9931;51.458;7.256;2024-01-30T00:26:35;27.90;;;20.00;;
19569;SDS011;9931;51.458;7.256;2024-01-30T00:29:00;27.13;;;20.02;;
19569;SDS011;9931;51.458;7.256;2024-01-30T00:31:25;45.38;;;20.92;;
19569;SDS011;9931;51.458;7.256;2024-01-30T00:33:50;64.97;;;22.00;;
19569;SDS011;9931;51.458;7.256;2024-01-30T00:36:16;51.03;;;20.37;;
19569;SDS011;9931;51.458;7.256;2024-01-30T00:38:41;82.80;;;24.03;;
19569;SDS011;9931;51.458;7.256;2024-01-30T00:41:07;33.27;;;19.73;;
19569;SDS011;9931;51.458;7.256;2024-01-30T00:43:32;27.15;;;19.77;;
19569;SDS011;9931;51.458;7.256;2024-01-30T00:45:58;32.20;;;19.47;;
19569;SDS011;9931;51.458;7.256;2024-01-30T00:48:23;35.42;;;19.35;;
19569;SDS011;9931;51.458;7.256;2024-01-30T00:50:48;29.27;;;19.83;;
19569;SDS011;9931;51.458;7.256;2024-01-30T00:53:13;31.60;;;20.07;;
19569;SDS011;9931;51.458;7.256;2024-01-30T00:55:39;40.22;;;24.13;;
19569;SDS011;9931;51.458;7.256;2024-01-30T00:58:04;35.20;;;23.47;;
19569;SDS011;9931;51.458;7.256;2024-01-30T01:00:29;39.65;;;22.60;;
19569;SDS011;9931;51.458;7.256;2024-01-30T01:02:55;37.30;;;22.60;;
19569;SDS011;9931;51.458;7.256;2024-01-30T01:05:21;41.78;;;23.13;;
19569;SDS011;9931;51.458;7.256;2024-01-30T01:07:46;50.13;;;23.55;;
19569;SDS011;9931;51.458;7.256;2024-01-30T01:10:13;37.30;;;22.42;;
19569;SDS011;9931;51.458;7.256;2024-01-30T01:12:38;41.42;;;22.70;;
19569;SDS011;9931;51.458;7.256;2024-01-30T01:15:04;37.42;;;21.55;;
19569;SDS011;9931;51.458;7.256;2024-01-30T01:17:29;40.92;;;22.55;;
19569;SDS011;9931;51.458;7.256;2024-01-30T01:19:55;42.90;;;22.37;;
19569;SDS011;9931;51.458;7.256;2024-01-30T01:22:20;46.27;;;22.03;;
19569;SDS011;9931;51.458;7.256;2024-01-30T01:24:45;35.97;;;20.52;;
19569;SDS011;9931;51.458;7.256;2024-01-30T01:27:10;65.78;;;21.75;;
19569;SDS011;9931;51.458;7.256;2024-01-30T01:29:35;44.70;;;20.48;;
19569;SDS011;9931;51.458;7.256;2024-01-30T01:32:00;34.22;;;19.77;;
19569;SDS011;9931;51.458;7.256;2024-01-30T01:34:26;38.47;;;18.33;;
19569;SDS011;9931;51.458;7.256;2024-01-30T01:36:51;34.33;;;20.97;;
19569;SDS011;9931;51.458;7.256;2024-01-30T01:39:16;42.20;;;21.52;;
19569;SDS011;9931;51.458;7.256;2024-01-30T01:41:42;35.38;;;19.52;;
19569;SDS011;9931;51.458;7.256;2024-01-30T01:44:07;41.28;;;18.42;;
19569;SDS011;9931;51.458;7.256;2024-01-30T01:46:33;43.35;;;18.67;;
19569;SDS011;9931;51.458;7.256;2024-01-30T01:48:58;36.95;;;19.27;;
19569;SDS011;9931;51.458;7.256;2024-01-30T01:51:24;37.80;;;19.73;;
19569;SDS011;9931;51.458;7.256;2024-01-30T01:53:49;34.03;;;18.60;;
19569;SDS011;9931;51.458;7.256;2024-01-30T01:56:15;31.65;;;19.15;;
19569;SDS011;9931;51.458;7.256;2024-01-30T01:58:41;113.13;;;22.63;;
19569;SDS011;9931;51.458;7.256;2024-01-30T02:01:06;27.17;;;17.13;;
19569;SDS011;9931;51.458;7.256;2024-01-30T02:03:32;47.15;;;18.23;;
19569;SDS011;9931;51.458;7.256;2024-01-30T02:05:58;25.35;;;17.33;;
19569;SDS011;9931;51.458;7.256;2024-01-30T02:08:24;30.27;;;16.10;;
19569;SDS011;9931;51.458;7.256;2024-01-30T02:10:49;41.70;;;18.27;;
19569;SDS011;9931;51.458;7.256;2024-01-30T02:13:14;31.45;;;15.23;;
19569;SDS011;9931;51.458;7.256;2024-01-30T02:15:39;31.02;;;15.10;;
19569;SDS011;9931;51.458;7.256;2024-01-30T02:18:05;34.73;;;16.17;;
19569;SDS011;9931;51.458;7.256;2024-01-30T02:20:30;34.60;;;16.38;;
19569;SDS011;9931;51.458;7.256;2024-01-30T02:22:56;35.25;;;16.67;;
19569;SDS011;9931;51.458;7.256;2024-01-30T02:25:39;32.38;;;16.17;;
19569;SDS011;9931;51.458;7.256;2024-01-30T02:28:09;16.98;;;14.23;;
19569;SDS011;9931;51.458;7.256;2024-01-30T02:30:34;23.88;;;15.75;;
19569;SDS011;9931;51.458;7.256;2024-01-30T02:32:59;32.72;;;15.55;;
19569;SDS011;9931;51.458;7.256;2024-01-30T02:35:24;19.73;;;14.80;;
19569;SDS011;9931;51.458;7.256;2024-01-30T02:37:49;16.93;;;15.50;;
19569;SDS011;9931;51.458;7.256;2024-01-30T02:40:14;25.67;;;14.63;;
19569;SDS011;9931;51.458;7.256;2024-01-30T02:42:39;28.40;;;14.13;;
19569;SDS011;9931;51.458;7.256;2024-01-30T02:45:05;56.88;;;16.02;;
19569;SDS011;9931;51.458;7.256;2024-01-30T02:47:30;31.50;;;14.82;;
19569;SDS011;9931;51.458;7.256;2024-01-30T02:49:55;31.00;;;14.98;;
19569;SDS011;9931;51.458;7.256;2024-01-30T02:52:21;25.30;;;13.15;;
19569;SDS011;9931;51.458;7.256;2024-01-30T02:54:46;26.20;;;13.70;;
19569;SDS011;9931;51.458;7.256;2024-01-30T02:57:11;53.13;;;16.83;;
19569;SDS011;9931;51.458;7.256;2024-01-30T02:59:36;47.90;;;16.52;;
19569;SDS011;9931;51.458;7.256;2024-01-30T03:02:01;23.57;;;15.03;;
19569;SDS011;9931;51.458;7.256;2024-01-30T03:04:27;28.57;;;14.67;;
19569;SDS011;9931;51.458;7.256;2024-01-30T03:06:52;54.35;;;17.77;;
19569;SDS011;9931;51.458;7.256;2024-01-30T03:09:18;32.10;;;16.20;;
19569;SDS011;9931;51.458;7.256;2024-01-30T03:11:43;39.65;;;17.42;;
19569;SDS011;9931;51.458;7.256;2024-01-30T03:14:08;20.50;;;16.75;;
19569;SDS011;9931;51.458;7.256;2024-01-30T03:16:36;29.35;;;16.70;;
19569;SDS011;9931;51.458;7.256;2024-01-30T03:19:01;29.20;;;16.73;;
19569;SDS011;9931;51.458;7.256;2024-01-30T03:21:27;22.83;;;15.60;;
19569;SDS011;9931;51.458;7.256;2024-01-30T03:23:52;43.93;;;16.43;;
19569;SDS011;9931;51.458;7.256;2024-01-30T03:26:18;27.85;;;16.15;;
19569;SDS011;9931;51.458;7.256;2024-01-30T03:28:43;81.90;;;19.13;;
19569;SDS011;9931;51.458;7.256;2024-01-30T03:31:08;49.53;;;16.17;;
19569;SDS011;9931;51.458;7.256;2024-01-30T03:33:34;25.65;;;15.68;;
19569;SDS011;9931;51.458;7.256;2024-01-30T03:36:02;44.65;;;16.00;;
19569;SDS011;9931;51.458;7.256;2024-01-30T03:38:27;28.88;;;14.10;;
19569;SDS011;9931;51.458;7.256;2024-01-30T03:40:52;31.08;;;14.10;;
19569;SDS011;9931;51.458;7.256;2024-01-30T03:43:17;31.40;;;14.30;;
19569;SDS011;9931;51.458;7.256;2024-01-30T03:45:43;30.03;;;14.93;;
19569;SDS011;9931;51.458;7.256;2024-01-30T03:48:08;35.87;;;15.10;;
19569;SDS011;9931;51.458;7.256;2024-01-30T03:50:33;29.40;;;14.87;;
19569;SDS011;9931;51.458;7.256;2024-01-30T03:52:58;49.00;;;15.45;;
19569;SDS011;9931;51.458;7.256;2024-01-30T03:55:23;25.43;;;15.53;;
19569;SDS011;9931;51.458;7.256;2024-01-30T03:57:49;33.60;;;17.35;;
19569;SDS011;9931;51.458;7.256;2024-01-30T04:00:14;45.17;;;17.33;;
19569;SDS011;9931;51.458;7.256;2024-01-30T04:02:39;37.42;;;17.75;;
19569;SDS011;9931;51.458;7.256;2024-01-30T04:05:05;30.63;;;15.25;;
19569;SDS011;9931;51.458;7.256;2024-01-30T04:07:30;31.00;;;14.80;;
19569;SDS011;9931;51.458;7.256;2024-01-30T04:09:56;53.17;;;15.98;;
19569;SDS011;9931;51.458;7.256;2024-01-30T04:12:21;27.27;;;15.10;;
19569;SDS011;9931;51.458;7.256;2024-01-30T04:14:46;37.50;;;15.47;;
19569;SDS011;9931;51.458;7.256;2024-01-30T04:17:12;37.28;;;17.45;;
19569;SDS011;9931;51.458;7.256;2024-01-30T04:19:37;33.37;;;18.73;;
19569;SDS011;9931;51.458;7.256;2024-01-30T04:22:03;48.95;;;17.23;;
19569;SDS011;9931;51.458;7.256;2024-01-30T04:24:28;60.38;;;17.48;;
19569;SDS011;9931;51.458;7.256;2024-01-30T04:26:53;33.73;;;15.80;;
19569;SDS011;9931;51.458;7.256;2024-01-30T04:29:18;34.50;;;16.43;;
19569;SDS011;9931;51.458;7.256;2024-01-30T04:31:44;35.97;;;17.23;;
19569;SDS011;9931;51.458;7.256;2024-01-30T04:34:09;36.63;;;15.95;;
19569;SDS011;9931;51.458;7.256;2024-01-30T04:36:34;27.55;;;15.80;;
19569;SDS011;9931;51.458;7.256;2024-01-30T04:39:00;38.63;;;16.20;;
19569;SDS011;9931;51.458;7.256;2024-01-30T04:41:25;29.43;;;14.93;;
19569;SDS011;9931;51.458;7.256;2024-01-30T04:43:51;38.97;;;15.90;;
19569;SDS011;9931;51.458;7.256;2024-01-30T04:46:16;27.60;;;14.30;;
19569;SDS011;9931;51.458;7.256;2024-01-30T04:48:41;72.60;;;16.73;;
19569;SDS011;9931;51.458;7.256;2024-01-30T04:51:06;32.22;;;15.68;;
19569;SDS011;9931;51.458;7.256;2024-01-30T04:53:31;34.03;;;15.30;;
19569;SDS011;9931;51.458;7.256;2024-01-30T04:55:57;31.85;;;15.27;;
19569;SDS011;9931;51.458;7.256;2024-01-30T04:58:22;30.13;;;16.15;;
19569;SDS011;9931;51.458;7.256;2024-01-30T05:00:47;39.30;;;15.03;;
19569;SDS011;9931;51.458;7.256;2024-01-30T05:03:16;35.45;;;15.07;;
19569;SDS011;9931;51.458;7.256;2024-01-30T05:05:42;43.08;;;17.30;;
19569;SDS011;9931;51.458;7.256;2024-01-30T05:08:07;30.60;;;15.30;;
19569;SDS011;9931;51.458;7.256;2024-01-30T05:10:33;24.87;;;14.80;;
19569;SDS011;9931;51.458;7.256;2024-01-30T05:12:58;42.65;;;15.25;;
19569;SDS011;9931;51.458;7.256;2024-01-30T05:15:23;28.90;;;15.10;;
19569;SDS011;9931;51.458;7.256;2024-01-30T05:17:48;56.08;;;18.95;;
19569;SDS011;9931;51.458;7.256;2024-01-30T05:20:13;25.25;;;15.02;;
19569;SDS011;9931;51.458;7.256;2024-01-30T05:22:38;15.52;;;14.15;;
19569;SDS011;9931;51.458;7.256;2024-01-30T05:25:09;29.15;;;14.77;;
19569;SDS011;9931;51.458;7.256;2024-01-30T05:27:34;26.37;;;14.77;;
19569;SDS011;9931;51.458;7.256;2024-01-30T05:30:00;47.78;;;15.35;;
19569;SDS011;9931;51.458;7.256;2024-01-30T05:32:25;25.90;;;14.03;;
19569;SDS011;9931;51.458;7.256;2024-01-30T05:34:50;43.63;;;15.50;;
19569;SDS011;9931;51.458;7.256;2024-01-30T05:37:15;25.98;;;14.13;;
19569;SDS011;9931;51.458;7.256;2024-01-30T05:39:42;34.78;;;15.65;;
19569;SDS011;9931;51.458;7.256;2024-01-30T05:42:07;39.78;;;16.88;;
19569;SDS011;9931;51.458;7.256;2024-01-30T05:44:32;35.28;;;16.83;;
19569;SDS011;9931;51.458;7.256;2024-01-30T05:46:58;35.00;;;15.88;;
19569;SDS011;9931;51.458;7.256;2024-01-30T05:49:23;26.20;;;14.93;;
19569;SDS011;9931;51.458;7.256;2024-01-30T05:51:48;28.40;;;15.63;;
19569;SDS011;9931;51.458;7.256;2024-01-30T05:54:13;28.55;;;14.68;;
19569;SDS011;9931;51.458;7.256;2024-01-30T05:56:39;25.03;;;13.07;;
19569;SDS011;9931;51.458;7.256;2024-01-30T05:59:04;25.17;;;13.20;;
19569;SDS011;9931;51.458;7.256;2024-01-30T06:01:29;35.38;;;14.05;;
19569;SDS011;9931;51.458;7.256;2024-01-30T06:03:54;36.38;;;13.95;;
19569;SDS011;9931;51.458;7.256;2024-01-30T06:06:20;35.38;;;14.27;;
19569;SDS011;9931;51.458;7.256;2024-01-30T06:08:45;81.60;;;15.82;;
19569;SDS011;9931;51.458;7.256;2024-01-30T06:11:10;25.17;;;12.20;;
19569;SDS011;9931;51.458;7.256;2024-01-30T06:13:36;27.67;;;14.23;;
19569;SDS011;9931;51.458;7.256;2024-01-30T06:16:01;27.80;;;12.83;;
19569;SDS011;9931;51.458;7.256;2024-01-30T06:18:27;30.88;;;12.68;;
19569;SDS011;9931;51.458;7.256;2024-01-30T06:20:54;39.53;;;16.75;;
19569;SDS011;9931;51.458;7.256;2024-01-30T06:23:19;25.98;;;14.13;;
19569;SDS011;9931;51.458;7.256;2024-01-30T06:25:44;32.28;;;15.40;;
19569;SDS011;9931;51.458;7.256;2024-01-30T06:28:09;39.00;;;15.43;;
19569;SDS011;9931;51.458;7.256;2024-01-30T06:30:35;27.98;;;15.10;;
19569;SDS011;9931;51.458;7.256;2024-01-30T06:33:00;33.10;;;17.42;;
19569;SDS011;9931;51.458;7.256;2024-01-30T06:35:25;24.00;;;13.50;;
19569;SDS011;9931;51.458;7.256;2024-01-30T06:37:50;25.87;;;13.30;;
19569;SDS011;9931;51.458;7.256;2024-01-30T06:40:16;35.50;;;15.73;;
19569;SDS011;9931;51.458;7.256;2024-01-30T06:42:41;36.17;;;16.00;;
19569;SDS011;9931;51.458;7.256;2024-01-30T06:45:06;37.80;;;16.13;;
19569;SDS011;9931;51.458;7.256;2024-01-30T06:47:32;29.20;;;17.33;;
19569;SDS011;9931;51.458;7.256;2024-01-30T06:49:58;36.73;;;18.50;;
19569;SDS011;9931;51.458;7.256;2024-01-30T06:52:23;31.55;;;19.27;;
19569;SDS011;9931;51.458;7.256;2024-01-30T06:54:48;30.23;;;19.38;;
19569;SDS011;9931;51.458;7.256;2024-01-30T06:57:13;27.42;;;18.35;;
19569;SDS011;9931;51.458;7.256;2024-01-30T06:59:39;39.92;;;20.00;;
19569;SDS011;9931;51.458;7.256;2024-01-30T07:02:08;29.50;;;19.15;;
19569;SDS011;9931;51.458;7.256;2024-01-30T07:04:33;31.17;;;18.80;;
19569;SDS011;9931;51.458;7.256;2024-01-30T07:06:58;34.88;;;19.02;;
19569;SDS011;9931;51.458;7.256;2024-01-30T07:09:23;38.78;;;21.33;;
19569;SDS011;9931;51.458;7.256;2024-01-30T07:11:49;32.37;;;20.27;;
19569;SDS011;9931;51.458;7.256;2024-01-30T07:14:14;35.10;;;20.03;;
19569;SDS011;9931;51.458;7.256;2024-01-30T07:16:39;44.10;;;19.53;;
19569;SDS011;9931;51.458;7.256;2024-01-30T07:19:04;35.45;;;19.80;;
19569;SDS011;9931;51.458;7.256;2024-01-30T07:21:29;28.00;;;19.20;;
19569;SDS011;9931;51.458;7.256;2024-01-30T07:23:54;42.30;;;21.03;;
19569;SDS011;9931;51.458;7.256;2024-01-30T07:26:20;38.17;;;20.15;;
19569;SDS011;9931;51.458;7.256;2024-01-30T07:28:45;83.43;;;23.13;;
19569;SDS011;9931;51.458;7.256;2024-01-30T07:31:10;31.45;;;19.05;;
19569;SDS011;9931;51.458;7.256;2024-01-30T07:33:35;33.40;;;19.45;;
19569;SDS011;9931;51.458;7.256;2024-01-30T07:36:01;32.07;;;20.87;;
19569;SDS011;9931;51.458;7.256;2024-01-30T07:38:26;32.80;;;21.23;;
19569;SDS011;9931;51.458;7.256;2024-01-30T07:40:51;44.60;;;25.70;;
19569;SDS011;9931;51.458;7.256;2024-01-30T07:43:16;45.78;;;28.42;;
19569;SDS011;9931;51.458;7.256;2024-01-30T07:45:41;53.90;;;27.60;;
19569;SDS011;9931;51.458;7.256;2024-01-30T07:48:07;41.80;;;25.57;;
19569;SDS011;9931;51.458;7.256;2024-01-30T07:50:32;48.35;;;27.65;;
19569;SDS011;9931;51.458;7.256;2024-01-30T07:52:59;43.53;;;26.60;;
19569;SDS011;9931;51.458;7.256;2024-01-30T07:55:24;40.45;;;27.42;;
19569;SDS011;9931;51.458;7.256;2024-01-30T07:57:52;45.42;;;28.55;;
19569;SDS011;9931;51.458;7.256;2024-01-30T08:00:18;62.10;;;31.77;;
19569;SDS011;9931;51.458;7.256;2024-01-30T08:02:44;47.13;;;30.75;;
19569;SDS011;9931;51.458;7.256;2024-01-30T08:05:09;45.03;;;30.10;;
19569;SDS011;9931;51.458;7.256;2024-01-30T08:07:36;54.75;;;30.55;;
19569;SDS011;9931;51.458;7.256;2024-01-30T08:10:01;74.90;;;31.97;;
19569;SDS011;9931;51.458;7.256;2024-01-30T08:12:26;58.07;;;30.13;;
19569;SDS011;9931;51.458;7.256;2024-01-30T08:14:51;57.03;;;30.63;;
19569;SDS011;9931;51.458;7.256;2024-01-30T08:17:16;65.37;;;32.93;;
19569;SDS011;9931;51.458;7.256;2024-01-30T08:19:42;53.60;;;33.00;;
19569;SDS011;9931;51.458;7.256;2024-01-30T08:22:07;57.75;;;32.15;;
19569;SDS011;9931;51.458;7.256;2024-01-30T08:24:32;63.20;;;33.50;;
19569;SDS011;9931;51.458;7.256;2024-01-30T08:26:57;68.50;;;33.70;;
19569;SDS011;9931;51.458;7.256;2024-01-30T08:29:23;57.03;;;33.25;;
19569;SDS011;9931;51.458;7.256;2024-01-30T08:31:48;63.78;;;34.97;;
19569;SDS011;9931;51.458;7.256;2024-01-30T08:34:13;53.42;;;35.33;;
19569;SDS011;9931;51.458;7.256;2024-01-30T08:36:38;48.87;;;34.67;;
19569;SDS011;9931;51.458;7.256;2024-01-30T08:39:03;60.63;;;36.20;;
19569;SDS011;9931;51.458;7.256;2024-01-30T08:41:30;67.63;;;37.78;;
19569;SDS011;9931;51.458;7.256;2024-01-30T08:43:55;79.25;;;38.95;;
19569;SDS011;9931;51.458;7.256;2024-01-30T08:46:20;64.35;;;37.10;;
19569;SDS011;9931;51.458;7.256;2024-01-30T08:48:46;114.90;;;40.97;;
19569;SDS011;9931;51.458;7.256;2024-01-30T08:51:11;70.57;;;37.08;;
19569;SDS011;9931;51.458;7.256;2024-01-30T08:53:37;65.22;;;37.35;;
19569;SDS011;9931;51.458;7.256;2024-01-30T08:56:02;62.20;;;36.63;;
19569;SDS011;9931;51.458;7.256;2024-01-30T08:58:27;65.45;;;37.00;;
19569;SDS011;9931;51.458;7.256;2024-01-30T09:00:53;65.50;;;36.42;;
19569;SDS011;9931;51.458;7.256;2024-01-30T09:03:18;78.07;;;37.83;;
19569;SDS011;9931;51.458;7.256;2024-01-30T09:05:43;66.20;;;37.83;;
19569;SDS011;9931;51.458;7.256;2024-01-30T09:08:08;76.07;;;38.17;;
19569;SDS011;9931;51.458;7.256;2024-01-30T09:10:33;72.65;;;38.42;;
19569;SDS011;9931;51.458;7.256;2024-01-30T09:12:58;77.30;;;38.10;;
19569;SDS011;9931;51.458;7.256;2024-01-30T09:15:24;63.23;;;37.20;;
19569;SDS011;9931;51.458;7.256;2024-01-30T09:17:49;72.73;;;38.20;;
19569;SDS011;9931;51.458;7.256;2024-01-30T09:20:14;66.43;;;37.70;;
19569;SDS011;9931;51.458;7.256;2024-01-30T09:22:39;60.53;;;37.80;;
19569;SDS011;9931;51.458;7.256;2024-01-30T09:25:04;65.40;;;38.80;;
19569;SDS011;9931;51.458;7.256;2024-01-30T09:27:30;75.68;;;40.75;;
19569;SDS011;9931;51.458;7.256;2024-01-30T09:29:56;82.13;;;40.08;;
19569;SDS011;9931;51.458;7.256;2024-01-30T09:32:21;83.50;;;47.30;;
19569;SDS011;9931;51.458;7.256;2024-01-30T09:34:46;71.38;;;43.45;;
19569;SDS011;9931;51.458;7.256;2024-01-30T09:37:11;79.53;;;43.00;;
19569;SDS011;9931;51.458;7.256;2024-01-30T09:39:36;78.50;;;42.33;;
19569;SDS011;9931;51.458;7.256;2024-01-30T09:44:33;63.97;;;42.13;;
19569;SDS011;9931;51.458;7.256;2024-01-30T09:46:59;96.68;;;44.45;;
19569;SDS011;9931;51.458;7.256;2024-01-30T09:49:28;70.68;;;42.15;;
19569;SDS011;9931;51.458;7.256;2024-01-30T09:51:54;131.77;;;47.33;;
19569;SDS011;9931;51.458;7.256;2024-01-30T09:54:20;113.85;;;53.97;;
19569;SDS011;9931;51.458;7.256;2024-01-30T09:56:47;127.47;;;46.35;;
19569;SDS011;9931;51.458;7.256;2024-01-30T09:59:12;78.72;;;42.85;;
19569;SDS011;9931;51.458;7.256;2024-01-30T10:01:37;79.75;;;45.17;;
19569;SDS011;9931;51.458;7.256;2024-01-30T10:04:04;84.10;;;44.72;;
19569;SDS011;9931;51.458;7.256;2024-01-30T10:06:29;93.97;;;45.22;;
19569;SDS011;9931;51.458;7.256;2024-01-30T10:08:54;131.93;;;49.65;;
19569;SDS011;9931;51.458;7.256;2024-01-30T10:11:20;85.97;;;46.70;;
19569;SDS011;9931;51.458;7.256;2024-01-30T10:13:45;78.37;;;45.37;;
19569;SDS011;9931;51.458;7.256;2024-01-30T10:16:13;80.18;;;45.88;;
19569;SDS011;9931;51.458;7.256;2024-01-30T10:18:38;99.28;;;49.55;;
19569;SDS011;9931;51.458;7.256;2024-01-30T10:21:03;88.57;;;46.43;;
19569;SDS011;9931;51.458;7.256;2024-01-30T10:23:28;97.80;;;50.00;;
19569;SDS011;9931;51.458;7.256;2024-01-30T10:25:54;118.75;;;56.58;;
19569;SDS011;9931;51.458;7.256;2024-01-30T10:28:19;105.80;;;53.77;;
19569;SDS011;9931;51.458;7.256;2024-01-30T10:30:44;112.57;;;55.17;;
19569;SDS011;9931;51.458;7.256;2024-01-30T10:33:09;93.30;;;52.72;;
19569;SDS011;9931;51.458;7.256;2024-01-30T10:35:34;94.20;;;52.20;;
19569;SDS011;9931;51.458;7.256;2024-01-30T10:38:00;110.35;;;58.72;;
19569;SDS011;9931;51.458;7.256;2024-01-30T10:40:27;108.05;;;52.53;;
19569;SDS011;9931;51.458;7.256;2024-01-30T10:42:52;112.70;;;53.80;;
19569;SDS011;9931;51.458;7.256;2024-01-30T10:45:18;97.35;;;51.10;;
19569;SDS011;9931;51.458;7.256;2024-01-30T10:47:46;107.97;;;54.00;;
19569;SDS011;9931;51.458;7.256;2024-01-30T10:50:13;103.47;;;54.83;;
19569;SDS011;9931;51.458;7.256;2024-01-30T10:52:39;107.38;;;54.00;;
19569;SDS011;9931;51.458;7.256;2024-01-30T10:55:07;122.63;;;55.20;;
19569;SDS011;9931;51.458;7.256;2024-01-30T10:57:33;110.60;;;56.47;;
19569;SDS011;9931;51.458;7.256;2024-01-30T11:00:00;106.85;;;55.30;;
19569;SDS011;9931;51.458;7.256;2024-01-30T11:02:26;111.07;;;56.03;;
19569;SDS011;9931;51.458;7.256;2024-01-30T11:04:58;112.43;;;53.85;;
19569;SDS011;9931;51.458;7.256;2024-01-30T11:07:25;122.28;;;54.85;;
19569;SDS011;9931;51.458;7.256;2024-01-30T11:09:51;106.75;;;55.55;;
